Time;durP1;ratioP1;P1;durP2;ratioP2;P2;SDS_P1;SDS_P2;PMS_P1;PMS_P2;Temp;Humidity;BMP_temperature;BMP_pressure;BME280_temperature;BME280_humidity;BME280_pressure;Samples;Min_cycle;Max_cycle;Signal;HPM_P1;HPM_P2
2023/05/01 00:00:10;;;;;;;7.93;7.13;;;;;;;13.63;100.00;148504.84;5089457;28;20215;-48
2023/05/01 00:02:54;;;;;;;8.27;7.40;;;;;;;13.68;100.00;148517.41;5090554;28;20191;-50
2023/05/01 00:06:10;;;;;;;8.40;7.60;;;;;;;13.66;100.00;148513.63;5086737;28;20663;-47
2023/05/01 00:12:15;;;;;;;8.50;7.53;;;;;;;13.93;100.00;148580.47;5089572;28;20203;-50
2023/05/01 00:14:56;;;;;;;8.23;7.43;;;;;;;13.98;100.00;148593.09;5090007;28;20636;-47
2023/05/01 00:17:49;;;;;;;8.10;7.40;;;;;;;13.99;100.00;148595.63;5089742;28;20745;-47
2023/05/01 00:29:43;;;;;;;8.20;7.60;;;;;;;14.29;100.00;148669.97;5087770;28;20639;-45
2023/05/01 00:32:41;;;;;;;7.27;6.60;;;;;;;14.34;100.00;148681.31;5087947;28;20191;-49
2023/05/01 00:35:33;;;;;;;6.57;5.97;;;;;;;14.28;100.00;148667.47;5089957;28;20626;-50
2023/05/01 00:38:24;;;;;;;6.47;5.93;;;;;;;14.26;100.00;148662.41;5087457;28;20195;-49
2023/05/01 00:41:09;;;;;;;6.70;6.03;;;;;;;14.15;100.00;148634.66;5089677;28;20219;-49
2023/05/01 00:47:11;;;;;;;6.33;5.83;;;;;;;14.21;100.00;148649.81;5087183;28;20282;-48
2023/05/01 00:50:12;;;;;;;7.03;6.33;;;;;;;14.25;100.00;148659.88;5085315;28;20279;-46
2023/05/01 00:53:27;;;;;;;;;;;;;;;;;;;;;
2023/05/01 00:59:47;;;;;;;7.30;6.73;;;;;;;14.24;100.00;148656.09;5087821;28;21016;-48
2023/05/01 01:05:42;;;;;;;6.33;5.93;;;;;;;14.29;100.00;148669.97;5089625;28;20194;-47
2023/05/01 01:15:09;;;;;;;6.83;6.30;;;;;;;14.23;100.00;148654.84;5087940;28;20199;-46
2023/05/01 01:18:33;;;;;;;6.40;6.00;;;;;;;14.24;100.00;148657.34;5089574;28;20721;-47
2023/05/01 01:21:25;;;;;;;6.70;6.10;;;;;;;14.19;100.00;148644.78;5088858;28;20230;-45
2023/05/01 01:28:42;;;;;;;9.00;5.97;;;;;;;14.01;100.00;148599.34;5081982;28;20214;-51
2023/05/01 01:35:25;;;;;;;7.30;6.60;;;;;;;13.73;100.00;148531.31;5087111;28;20290;-48
2023/05/01 01:38:21;;;;;;;8.67;6.53;;;;;;;13.69;100.00;148521.22;5083419;28;20227;-48
2023/05/01 01:41:22;;;;;;;7.60;6.90;;;;;;;13.63;100.00;148506.09;5089445;28;20218;-46
2023/05/01 01:44:26;;;;;;;7.37;6.77;;;;;;;13.54;100.00;148483.44;5079828;28;20290;-46
2023/05/01 01:53:23;;;;;;;8.23;7.60;;;;;;;13.49;100.00;148470.81;5090049;28;20222;-48
2023/05/01 01:56:20;;;;;;;8.20;7.50;;;;;;;13.43;100.00;148455.72;5089902;28;20238;-48
2023/05/01 01:59:16;;;;;;;8.63;7.83;;;;;;;13.48;100.00;148468.28;5089980;28;20655;-49
2023/05/01 02:02:13;;;;;;;7.80;7.20;;;;;;;13.48;100.00;148468.28;5091082;28;20202;-49
2023/05/01 02:08:23;;;;;;;8.07;7.47;;;;;;;13.19;100.00;148396.47;5092756;28;20200;-49
2023/05/01 02:10:58;;;;;;;8.07;7.47;;;;;;;13.19;100.00;148395.22;5092412;28;20675;-49
2023/05/01 02:22:57;;;;;;;;;;;;;;;;;;;;;
2023/05/01 02:29:07;;;;;;;8.67;7.87;;;;;;;13.04;100.00;148359.88;5089172;28;20222;-46
2023/05/01 02:32:11;;;;;;;8.83;8.03;;;;;;;13.02;100.00;148353.56;5091785;28;20202;-46
2023/05/01 02:38:11;;;;;;;11.03;7.37;;;;;;;13.01;100.00;148352.31;5091428;28;20231;-48
2023/05/01 02:41:25;;;;;;;9.70;7.83;;;;;;;13.08;100.00;148369.97;5090437;28;20269;-48
2023/05/01 02:44:32;;;;;;;;;;;;;;;;;;;;;
2023/05/01 02:47:01;;;;;;;8.60;7.60;;;;;;;12.96;100.00;148339.75;5086749;28;20525;-49
2023/05/01 02:50:06;;;;;;;8.87;8.00;;;;;;;12.95;100.00;148337.22;5091676;28;20202;-50
2023/05/01 02:52:56;;;;;;;9.07;7.87;;;;;;;12.94;100.00;148333.44;5092072;28;20191;-47
2023/05/01 02:55:49;;;;;;;8.37;7.57;;;;;;;12.99;100.00;148346.00;5091731;28;20192;-48
2023/05/01 03:01:35;;;;;;;8.77;7.97;;;;;;;12.91;100.00;148327.13;5090259;28;20225;-47
2023/05/01 03:07:33;;;;;;;8.17;7.57;;;;;;;12.73;100.00;148281.78;5087044;28;20203;-46
2023/05/01 03:10:21;;;;;;;8.97;7.50;;;;;;;12.65;100.00;148262.88;5091048;28;20234;-46
2023/05/01 03:16:13;;;;;;;8.30;7.60;;;;;;;12.67;100.00;148266.66;5090371;28;20214;-46
2023/05/01 03:19:05;;;;;;;8.17;7.47;;;;;;;12.76;100.00;148289.31;5091136;28;20240;-46
2023/05/01 03:22:07;;;;;;;8.33;7.57;;;;;;;12.76;100.00;148288.06;5090754;28;20330;-50
2023/05/01 03:24:43;;;;;;;8.20;7.50;;;;;;;12.67;100.00;148267.91;5089094;28;20206;-49
2023/05/01 03:27:15;;;;;;;9.23;8.17;;;;;;;12.67;100.00;148266.66;5080337;28;20269;-47
2023/05/01 03:29:58;;;;;;;8.60;7.90;;;;;;;12.65;100.00;148261.59;5070120;28;20258;-46
2023/05/01 03:32:38;;;;;;;8.93;8.00;;;;;;;12.61;100.00;148252.81;5087172;28;20614;-48
2023/05/01 03:35:21;;;;;;;9.70;7.97;;;;;;;12.50;100.00;148223.84;5090211;28;20219;-46
2023/05/01 03:38:07;;;;;;;13.57;9.47;;;;;;;12.49;100.00;148221.34;5090530;28;20223;-47
2023/05/01 03:40:42;;;;;;;9.33;8.40;;;;;;;12.59;100.00;148246.50;5088337;28;20227;-47
2023/05/01 03:46:48;;;;;;;8.67;7.97;;;;;;;12.77;100.00;148291.84;5085997;28;20295;-49
2023/05/01 03:49:28;;;;;;;8.57;7.90;;;;;;;12.89;100.00;148322.06;5075766;28;20219;-47
2023/05/01 03:51:57;;;;;;;12.03;8.20;;;;;;;13.12;100.00;148377.50;5071674;28;20284;-47
2023/05/01 03:54:31;;;;;;;8.13;7.40;;;;;;;13.32;100.00;148427.94;5089780;28;20746;-47
2023/05/01 03:57:09;;;;;;;8.10;7.30;;;;;;;13.56;100.00;148487.16;5089526;28;20238;-46
2023/05/01 04:00:03;;;;;;;8.53;7.67;;;;;;;14.16;100.00;148638.47;5089624;28;20211;-47
2023/05/01 04:02:53;;;;;;;8.17;7.47;;;;;;;15.30;100.00;148921.06;5088410;28;20231;-46
2023/05/01 04:05:33;;;;;;;8.13;7.00;;;;;;;16.94;100.00;149329.00;5072626;28;20668;-47
2023/05/01 04:17:48;;;;;;;6.78;6.15;;;;;;;22.75;74.63;150780.22;5068888;28;20196;-50
2023/05/01 04:24:15;;;;;;;6.45;5.70;;;;;;;25.87;62.00;151562.69;5084837;28;20206;-50
2023/05/01 04:27:25;;;;;;;;;;;;;;;;;;;;;
2023/05/01 04:33:10;;;;;;;5.93;5.38;;;;;;;28.59;50.81;152244.81;5087469;28;20211;-52
2023/05/01 04:35:48;;;;;;;6.35;5.45;;;;;;;29.04;48.94;152356.94;5088409;28;20278;-50
2023/05/01 04:38:20;;;;;;;5.47;5.00;;;;;;;29.40;47.76;152448.69;5090130;28;20199;-50
2023/05/01 04:40:57;;;;;;;5.25;4.85;;;;;;;29.85;45.67;152560.81;5084000;28;20219;-51
2023/05/01 04:43:38;;;;;;;6.00;5.40;;;;;;;29.79;45.07;152546.81;5069370;28;20207;-51
2023/05/01 04:46:11;;;;;;;5.97;5.20;;;;;;;29.65;44.81;152511.13;5068718;28;20253;-51
2023/05/01 04:49:09;;;;;;;5.15;4.85;;;;;;;29.12;44.64;152377.34;5075236;28;20225;-50
2023/05/01 04:52:09;;;;;;;4.22;3.97;;;;;;;29.35;45.02;152435.88;5083406;28;20213;-50
2023/05/01 04:55:03;;;;;;;6.25;5.03;;;;;;;29.44;44.53;152458.91;5088840;28;20277;-48
2023/05/01 04:58:05;;;;;;;5.80;5.47;;;;;;;30.25;43.13;152662.81;5087681;28;20226;-48
2023/05/01 05:04:04;;;;;;;12.43;5.68;;;;;;;30.68;41.23;152769.97;5086694;28;20221;-47
2023/05/01 05:06:33;;;;;;;5.30;4.63;;;;;;;30.89;40.17;152822.22;5088998;28;20199;-47
2023/05/01 05:09:18;;;;;;;5.93;5.35;;;;;;;31.18;39.32;152894.94;5089522;28;20663;-47
2023/05/01 05:11:56;;;;;;;5.10;4.70;;;;;;;31.99;37.45;153099.06;5086800;28;20226;-47
2023/05/01 05:15:08;;;;;;;5.53;5.15;;;;;;;31.25;38.04;152914.09;5093045;28;20191;-47
2023/05/01 05:27:00;;;;;;;5.85;5.35;;;;;;;31.60;37.14;153002.09;5093102;28;20597;-51
2023/05/01 05:29:44;;;;;;;7.43;5.47;;;;;;;32.12;35.33;153132.25;5090815;28;20194;-50
2023/05/01 05:32:26;;;;;;;5.47;4.97;;;;;;;32.56;34.90;153242.03;5093018;28;20195;-51
2023/05/01 05:34:58;;;;;;;6.18;5.65;;;;;;;33.01;33.63;153356.97;5092644;28;20244;-51
2023/05/01 05:37:35;;;;;;;5.93;5.55;;;;;;;32.91;33.92;153330.16;5091726;28;20667;-51
2023/05/01 05:40:23;;;;;;;7.82;5.20;;;;;;;33.02;33.74;153359.53;5089801;28;20674;-51
2023/05/01 05:43:03;;;;;;;5.32;5.03;;;;;;;32.42;34.02;153208.84;5090627;28;20195;-51
2023/05/01 05:45:35;;;;;;;5.78;5.38;;;;;;;31.15;35.76;152887.31;5090148;28;20614;-51
2023/05/01 05:48:25;;;;;;;6.25;5.32;;;;;;;30.83;36.92;152808.16;5092623;28;20606;-52
2023/05/01 05:51:09;;;;;;;5.57;5.28;;;;;;;31.19;36.58;152897.50;5092371;28;20206;-51
2023/05/01 05:54:04;;;;;;;6.85;5.93;;;;;;;31.49;36.01;152974.00;5093176;28;20313;-51
2023/05/01 05:57:09;;;;;;;5.85;5.55;;;;;;;32.09;34.53;153124.59;5092100;28;20191;-50
2023/05/01 06:00:10;;;;;;;6.38;4.80;;;;;;;33.07;33.21;153372.25;5092789;28;20282;-48
2023/05/01 06:02:43;;;;;;;5.15;4.75;;;;;;;33.39;32.26;153452.78;5092268;28;20683;-48
2023/05/01 06:05:13;;;;;;;5.70;5.05;;;;;;;32.78;32.99;153298.25;5087801;28;20266;-48
2023/05/01 06:07:58;;;;;;;4.93;4.45;;;;;;;32.16;33.95;153142.47;5092189;28;20202;-51
2023/05/01 06:10:29;;;;;;;4.63;4.43;;;;;;;32.57;33.81;153244.59;5089319;28;20199;-51
2023/05/01 06:12:59;;;;;;;5.28;4.60;;;;;;;32.78;33.26;153298.25;5089572;28;20199;-49
2023/05/01 06:15:32;;;;;;;5.18;4.65;;;;;;;33.36;32.89;153445.13;5092249;28;20244;-51
2023/05/01 06:18:08;;;;;;;5.20;4.80;;;;;;;33.85;32.21;153569.03;5091553;28;20201;-50
2023/05/01 06:20:37;;;;;;;6.13;5.72;;;;;;;33.40;31.96;153455.34;5091219;28;20191;-51
2023/05/01 06:26:22;;;;;;;7.63;4.63;;;;;;;33.59;32.74;153502.56;5091007;28;20671;-51
2023/05/01 06:35:20;;;;;;;5.93;4.28;;;;;;;32.18;34.08;153146.31;5091758;28;20238;-49
2023/05/01 06:38:15;;;;;;;4.63;4.18;;;;;;;31.40;35.10;152952.31;5091353;28;20199;-49
2023/05/01 06:41:03;;;;;;;4.35;4.15;;;;;;;31.61;35.26;153003.34;5089204;28;20206;-47
2023/05/01 06:44:03;;;;;;;4.78;4.55;;;;;;;32.18;33.84;153147.59;5085494;28;20210;-51
2023/05/01 06:46:31;;;;;;;4.80;4.03;;;;;;;32.34;34.55;153188.44;5090899;28;20195;-51
2023/05/01 06:49:01;;;;;;;5.68;4.68;;;;;;;32.43;33.54;153211.41;5088849;28;20296;-49
2023/05/01 06:51:54;;;;;;;4.43;4.03;;;;;;;32.28;33.20;153171.88;5070757;28;20638;-48
2023/05/01 06:54:42;;;;;;;4.18;3.67;;;;;;;32.47;32.56;153221.63;5069750;28;20249;-51
2023/05/01 06:57:26;;;;;;;5.82;3.63;;;;;;;32.27;33.31;153170.59;5070000;28;20285;-50
2023/05/01 07:00:24;;;;;;;4.00;3.70;;;;;;;32.31;33.00;153180.78;5069086;28;20196;-52
2023/05/01 07:03:29;;;;;;;3.55;3.35;;;;;;;32.50;32.18;153228.03;5069757;28;20317;-50
2023/05/01 07:06:34;;;;;;;4.30;4.10;;;;;;;32.01;32.62;153104.19;5071246;28;20204;-55
2023/05/01 07:09:18;;;;;;;5.88;4.60;;;;;;;31.76;32.52;153041.66;5066906;28;20191;-52
2023/05/01 07:12:15;;;;;;;4.82;4.43;;;;;;;31.88;33.06;153071.00;5071192;28;20287;-52
2023/05/01 07:15:22;;;;;;;4.70;4.30;;;;;;;31.85;32.29;153063.34;5070860;28;20253;-55
2023/05/01 07:18:11;;;;;;;4.00;3.80;;;;;;;32.16;31.64;153142.47;5069687;28;20290;-51
2023/05/01 07:21:11;;;;;;;4.57;4.20;;;;;;;32.84;31.14;153312.31;5070214;28;20295;-47
2023/05/01 07:24:20;;;;;;;4.18;3.97;;;;;;;33.65;30.72;153517.88;5069753;28;20661;-48
2023/05/01 07:27:11;;;;;;;5.70;4.40;;;;;;;33.49;29.80;153477.03;5070891;28;20216;-49
2023/05/01 07:30:00;;;;;;;4.63;4.18;;;;;;;34.26;28.91;153671.25;5070942;28;20635;-49
2023/05/01 07:36:12;;;;;;;6.40;3.95;;;;;;;33.88;30.34;153575.41;5069445;28;20273;-50
2023/05/01 07:39:12;;;;;;;6.18;3.75;;;;;;;34.09;28.96;153629.03;5069700;28;20200;-48
2023/05/01 07:42:11;;;;;;;4.50;4.13;;;;;;;34.03;29.12;153612.44;5070458;28;20267;-48
2023/05/01 07:48:11;;;;;;;3.83;3.60;;;;;;;34.53;28.46;153740.28;5066441;28;20635;-48
2023/05/01 07:51:12;;;;;;;4.10;3.67;;;;;;;34.39;27.62;153703.19;5070543;28;20236;-52
2023/05/01 07:54:13;;;;;;;4.10;3.70;;;;;;;34.43;27.57;153714.66;5070683;28;20204;-52
2023/05/01 07:57:12;;;;;;;4.60;4.30;;;;;;;34.47;28.01;153724.91;5068787;28;20291;-51
2023/05/01 08:00:12;;;;;;;7.10;3.65;;;;;;;34.43;27.85;153714.66;5030645;28;20197;-51
2023/05/01 08:03:19;;;;;;;4.55;4.15;;;;;;;34.42;28.13;153710.88;5029699;28;20236;-53
2023/05/01 08:06:29;;;;;;;5.45;4.32;;;;;;;34.01;28.34;153607.34;5026364;28;20201;-52
2023/05/01 08:09:22;;;;;;;5.03;4.65;;;;;;;33.07;30.12;153371.03;5024835;28;20585;-52
2023/05/01 08:12:22;;;;;;;4.57;4.00;;;;;;;33.44;29.36;153464.25;5029057;28;20224;-52
2023/05/01 08:15:20;;;;;;;3.72;3.42;;;;;;;32.90;31.11;153328.88;5030442;28;25129;-52
2023/05/01 08:18:05;;;;;;;3.80;3.60;;;;;;;33.14;30.39;153388.88;5027370;28;20263;-50
2023/05/01 08:24:13;;;;;;;4.97;3.65;;;;;;;32.21;31.39;153155.25;5028799;28;20197;-47
2023/05/01 08:27:11;;;;;;;6.20;3.97;;;;;;;32.04;30.82;153111.84;5029947;28;20193;-50
2023/05/01 08:30:15;;;;;;;10.88;3.95;;;;;;;32.36;30.05;153193.56;5043040;28;20201;-51
2023/05/01 08:32:42;;;;;;;3.97;3.63;;;;;;;32.20;30.12;153152.72;5047233;28;20581;-51
2023/05/01 08:35:16;;;;;;;14.65;12.23;;;;;;;31.86;30.40;153065.91;5047475;28;20200;-53
2023/05/01 08:38:03;;;;;;;4.25;3.88;;;;;;;31.57;30.71;152994.44;5034241;28;20205;-52
2023/05/01 08:41:08;;;;;;;4.43;3.88;;;;;;;31.32;30.94;152930.66;5028898;28;20288;-51
2023/05/01 08:43:40;;;;;;;4.43;4.05;;;;;;;30.85;32.04;152813.28;5036239;28;20766;-52
2023/05/01 08:49:32;;;;;;;3.70;3.40;;;;;;;30.19;31.63;152646.25;5047975;28;20220;-49
2023/05/01 08:52:24;;;;;;;3.17;3.08;;;;;;;29.63;32.60;152504.75;5047358;28;20196;-48
2023/05/01 08:55:16;;;;;;;2.95;2.85;;;;;;;28.67;32.31;152263.94;5048202;28;20291;-48
2023/05/01 08:58:21;;;;;;;3.63;3.47;;;;;;;28.90;34.40;152322.53;5066935;28;20234;-49
2023/05/01 09:01:06;;;;;;;3.40;3.10;;;;;;;29.33;34.97;152430.84;5087585;28;20200;-51
2023/05/01 09:03:56;;;;;;;3.78;3.47;;;;;;;29.37;34.87;152439.72;5088052;28;20222;-51
2023/05/01 09:06:36;;;;;;;3.75;3.40;;;;;;;28.25;36.43;152158.22;5084802;28;20198;-49
2023/05/01 09:09:10;;;;;;;3.30;3.00;;;;;;;28.28;36.28;152167.16;5086781;28;20199;-51
2023/05/01 09:11:49;;;;;;;4.82;4.28;;;;;;;28.52;37.00;152227.00;5088355;28;20206;-54
2023/05/01 09:14:23;;;;;;;3.40;3.20;;;;;;;27.91;37.44;152072.91;5088124;28;20657;-52
2023/05/01 09:16:54;;;;;;;2.90;2.65;;;;;;;27.78;38.06;152042.34;5087944;28;20253;-53
2023/05/01 09:19:45;;;;;;;3.60;3.30;;;;;;;27.88;34.44;152065.31;5088123;28;20299;-53
2023/05/01 09:25:11;;;;;;;3.03;2.83;;;;;;;27.74;36.74;152032.19;5087234;28;20198;-51
2023/05/01 09:27:53;;;;;;;3.60;2.75;;;;;;;27.92;37.05;152075.44;5087718;28;20260;-53
2023/05/01 09:30:46;;;;;;;3.88;3.67;;;;;;;28.35;38.41;152183.69;5087547;28;20244;-53
2023/05/01 09:33:18;;;;;;;3.33;3.00;;;;;;;28.19;37.21;152144.25;5084986;28;20202;-54
2023/05/01 09:35:58;;;;;;;3.88;3.58;;;;;;;27.62;37.89;152000.38;5068566;28;20200;-52
2023/05/01 09:38:55;;;;;;;3.35;3.00;;;;;;;27.64;39.05;152005.47;5068134;28;20583;-52
2023/05/01 09:41:26;;;;;;;3.90;3.60;;;;;;;27.70;39.45;152020.72;5068126;28;20680;-52
2023/05/01 09:44:02;;;;;;;3.38;3.17;;;;;;;27.74;38.59;152030.94;5066793;28;20227;-53
2023/05/01 09:46:44;;;;;;;3.50;3.20;;;;;;;27.79;38.74;152044.91;5067945;28;20195;-52
2023/05/01 09:49:24;;;;;;;4.97;3.83;;;;;;;27.68;38.43;152016.91;5068362;28;20196;-51
2023/05/01 09:52:13;;;;;;;3.35;3.05;;;;;;;27.54;38.42;151981.22;5067625;28;20199;-53
2023/05/01 09:54:55;;;;;;;3.70;3.40;;;;;;;27.89;37.96;152069.06;5068574;28;20203;-52
2023/05/01 09:57:55;;;;;;;3.85;3.55;;;;;;;27.48;37.36;151967.25;5067333;28;20328;-53
2023/05/01 10:00:44;;;;;;;3.40;3.15;;;;;;;27.85;36.03;152058.94;5071354;28;20195;-52
2023/05/01 10:03:33;;;;;;;3.13;2.97;;;;;;;27.34;37.68;151931.59;5071988;28;20219;-52
2023/05/01 10:06:07;;;;;;;4.20;3.67;;;;;;;27.43;37.39;151953.22;5087863;28;20209;-53
2023/05/01 10:09:15;;;;;;;3.10;2.90;;;;;;;27.52;37.09;151976.16;5090878;28;20199;-52
2023/05/01 10:12:00;;;;;;;3.65;3.35;;;;;;;27.71;36.62;152024.56;5091013;28;20206;-53
2023/05/01 10:15:03;;;;;;;3.30;3.10;;;;;;;27.99;35.96;152094.53;5090771;28;20195;-52
2023/05/01 10:17:47;;;;;;;3.85;3.03;;;;;;;27.34;37.53;151931.59;5090891;28;20218;-52
2023/05/01 10:20:36;;;;;;;3.00;2.90;;;;;;;26.62;37.60;151750.94;5090937;28;20203;-52
2023/05/01 10:23:12;;;;;;;3.25;3.15;;;;;;;26.17;38.58;151637.72;5090322;28;20607;-52
2023/05/01 10:26:06;;;;;;;4.78;3.50;;;;;;;25.95;39.25;151581.78;5090235;28;20671;-54
2023/05/01 10:28:38;;;;;;;3.55;3.22;;;;;;;25.28;39.71;151415.22;5090522;28;20286;-51
2023/05/01 10:31:28;;;;;;;3.20;3.00;;;;;;;25.02;39.98;151349.16;5090384;28;20203;-53
2023/05/01 10:34:08;;;;;;;3.42;3.10;;;;;;;24.99;40.65;151341.53;5089928;28;20187;-53
2023/05/01 10:37:01;;;;;;;3.67;3.38;;;;;;;25.16;40.51;151384.75;5088265;28;20203;-52
2023/05/01 10:39:37;;;;;;;3.85;3.65;;;;;;;24.99;41.68;151340.25;5090223;28;20600;-54
2023/05/01 10:42:15;;;;;;;4.45;4.07;;;;;;;24.78;42.57;151288.13;5069472;28;20654;-47
2023/05/01 10:44:46;;;;;;;6.07;3.10;;;;;;;24.49;41.21;151216.97;5071216;28;20701;-53
2023/05/01 10:47:49;;;;;;;3.78;3.53;;;;;;;24.11;42.06;151120.44;5070414;28;20256;-58
2023/05/01 10:53:28;;;;;;;4.00;3.72;;;;;;;23.88;43.39;151063.31;5068071;28;20216;-52
2023/05/01 10:56:00;;;;;;;3.78;3.47;;;;;;;23.59;43.42;150990.94;5071397;28;20196;-52
2023/05/01 10:59:11;;;;;;;3.17;2.97;;;;;;;23.65;44.19;151006.19;5069995;28;20697;-52
2023/05/01 11:01:57;;;;;;;3.50;3.30;;;;;;;23.58;43.33;150988.44;5070883;28;20286;-47
2023/05/01 11:04:55;;;;;;;5.05;4.03;;;;;;;23.79;43.47;151041.75;5069795;28;20604;-49
2023/05/01 11:08:08;;;;;;;3.40;3.20;;;;;;;23.91;42.86;151070.94;5025997;28;20196;-48
2023/05/01 11:10:41;;;;;;;5.22;3.25;;;;;;;23.87;42.69;151060.78;5069697;28;20304;-50
2023/05/01 11:13:11;;;;;;;4.70;3.13;;;;;;;23.76;42.36;151032.84;5069713;28;20246;-48
2023/05/01 11:16:32;;;;;;;3.50;3.20;;;;;;;23.66;42.38;151007.47;5085214;28;20195;-49
2023/05/01 11:19:10;;;;;;;2.80;2.70;;;;;;;23.85;44.18;151055.69;5090202;28;20191;-49
2023/05/01 11:21:46;;;;;;;3.53;3.28;;;;;;;23.95;43.94;151079.81;5090694;28;20194;-49
2023/05/01 11:24:16;;;;;;;3.40;3.20;;;;;;;23.91;42.60;151070.94;5085350;28;20219;-48
2023/05/01 11:26:58;;;;;;;4.72;2.95;;;;;;;23.81;44.52;151045.56;5087672;28;20658;-49
2023/05/01 11:29:52;;;;;;;3.30;3.10;;;;;;;23.76;43.74;151034.13;5086831;28;20246;-49
2023/05/01 11:32:28;;;;;;;3.60;3.30;;;;;;;23.88;43.89;151063.31;5089385;28;20193;-48
2023/05/01 11:35:04;;;;;;;10.27;3.60;;;;;;;23.71;48.89;151021.41;5088170;28;20616;-48
2023/05/01 11:37:54;;;;;;;3.78;3.33;;;;;;;23.48;49.18;150962.97;5088059;28;20260;-47
2023/05/01 11:40:24;;;;;;;3.63;3.33;;;;;;;23.43;49.08;150950.28;5090835;28;20229;-48
2023/05/01 11:43:17;;;;;;;3.75;3.50;;;;;;;23.38;48.53;150937.59;5090713;28;20250;-50
2023/05/01 11:46:12;;;;;;;8.80;3.80;;;;;;;23.28;49.78;150913.47;5069887;28;20203;-48
2023/05/01 11:52:19;;;;;;;3.70;3.40;;;;;;;23.08;48.37;150864.00;5069138;28;20283;-49
2023/05/01 12:01:57;;;;;;;4.75;3.65;;;;;;;22.85;47.82;150805.63;5068428;28;20207;-48
2023/05/01 12:04:51;;;;;;;4.25;3.92;;;;;;;22.84;48.71;150803.09;5067226;28;20703;-47
2023/05/01 12:07:57;;;;;;;7.22;5.25;;;;;;;22.76;49.28;150782.81;5070016;28;20282;-49
2023/05/01 12:11:06;;;;;;;5.00;4.60;;;;;;;22.69;48.88;150764.97;5067097;28;20249;-53
2023/05/01 12:14:06;;;;;;;4.13;3.92;;;;;;;22.57;49.56;150734.56;5069667;28;20191;-52
2023/05/01 12:23:23;;;;;;;4.22;3.85;;;;;;;22.71;48.67;150770.06;5067553;28;20245;-52
2023/05/01 12:35:53;;;;;;;5.05;3.22;;;;;;;23.02;46.47;150847.53;5065847;28;20254;-53
2023/05/01 12:38:45;;;;;;;4.18;3.88;;;;;;;23.05;45.47;150856.38;5062915;28;20211;-52
2023/05/01 12:45:08;;;;;;;3.65;3.40;;;;;;;23.04;45.17;150853.84;5067248;28;20227;-52
2023/05/01 12:48:00;;;;;;;5.50;3.53;;;;;;;22.99;44.70;150841.16;5064498;28;20287;-53
2023/05/01 12:51:09;;;;;;;4.13;3.30;;;;;;;23.00;44.80;150842.44;5068380;28;20202;-52
2023/05/01 12:54:00;;;;;;;4.22;4.03;;;;;;;22.89;43.23;150814.53;5068216;28;20191;-52
2023/05/01 12:57:17;;;;;;;3.75;3.33;;;;;;;22.84;43.11;150803.09;5067143;28;20593;-52
2023/05/01 13:00:17;;;;;;;4.13;3.72;;;;;;;22.66;42.66;150758.66;5029516;28;20651;-48
2023/05/01 13:03:15;;;;;;;3.75;3.42;;;;;;;22.51;43.42;150719.31;5029482;28;20201;-52
2023/05/01 13:06:22;;;;;;;3.22;3.03;;;;;;;22.68;42.91;150762.47;5029507;28;20199;-53
2023/05/01 13:09:18;;;;;;;3.90;3.60;;;;;;;22.68;43.38;150762.47;5029562;28;20236;-53
2023/05/01 13:12:23;;;;;;;4.20;3.90;;;;;;;22.68;46.68;150762.47;5027218;28;20197;-48
2023/05/01 13:15:07;;;;;;;4.20;3.53;;;;;;;22.64;47.95;150752.31;5029504;28;20204;-48
2023/05/01 13:18:11;;;;;;;5.55;3.80;;;;;;;22.73;48.69;150775.13;5028673;28;20292;-49
2023/05/01 13:21:17;;;;;;;5.10;4.75;;;;;;;22.71;49.25;150771.31;5025712;28;20220;-48
2023/05/01 13:24:16;;;;;;;4.32;3.47;;;;;;;22.70;47.01;150768.78;5029255;28;20610;-49
2023/05/01 13:26:48;;;;;;;6.03;3.72;;;;;;;22.67;47.80;150761.19;5037704;28;20205;-53
2023/05/01 13:29:22;;;;;;;4.00;3.55;;;;;;;22.58;48.65;150738.34;5048334;28;20200;-51
2023/05/01 13:32:03;;;;;;;3.58;3.28;;;;;;;22.60;47.65;150742.16;5046772;28;20227;-52
2023/05/01 13:34:36;;;;;;;3.40;3.00;;;;;;;22.59;47.05;150739.59;5052760;28;20196;-50
2023/05/01 13:37:19;;;;;;;4.15;3.00;;;;;;;22.52;46.25;150721.88;5052720;28;20207;-52
2023/05/01 13:40:11;;;;;;;2.92;2.60;;;;;;;22.52;47.15;150721.88;5052345;28;20749;-53
2023/05/01 13:42:44;;;;;;;5.22;3.08;;;;;;;22.54;46.33;150726.94;5053157;28;20197;-53
2023/05/01 13:45:16;;;;;;;5.10;3.35;;;;;;;22.51;47.30;150719.31;5052234;28;20200;-54
2023/05/01 13:47:56;;;;;;;3.40;3.20;;;;;;;22.46;47.21;150709.16;5048879;28;20283;-53
2023/05/01 13:50:26;;;;;;;4.57;3.05;;;;;;;22.39;46.53;150691.41;5049817;28;20282;-53
2023/05/01 13:53:05;;;;;;;3.95;3.28;;;;;;;22.45;46.72;150705.41;5051366;28;20712;-53
2023/05/01 13:56:03;;;;;;;3.13;2.92;;;;;;;22.41;45.68;150695.22;5049418;28;20271;-52
2023/05/01 13:59:05;;;;;;;3.38;3.10;;;;;;;22.41;44.10;150696.50;5072246;28;20231;-52
2023/05/01 14:01:55;;;;;;;2.88;2.67;;;;;;;22.42;42.73;150699.03;5093156;28;20792;-53
2023/05/01 14:04:43;;;;;;;3.90;2.45;;;;;;;22.42;42.75;150699.03;5072469;28;20252;-54
2023/05/01 14:07:38;;;;;;;3.38;2.75;;;;;;;22.38;42.45;150688.88;5071754;28;20265;-53
2023/05/01 14:10:31;;;;;;;3.33;3.13;;;;;;;22.28;41.55;150662.25;5071568;28;20195;-49
2023/05/01 14:13:39;;;;;;;2.95;2.75;;;;;;;22.31;39.18;150671.13;5071463;28;20719;-49
2023/05/01 14:19:27;;;;;;;3.33;3.10;;;;;;;22.34;38.80;150678.75;5070764;28;20196;-52
2023/05/01 14:22:22;;;;;;;3.80;3.50;;;;;;;22.35;39.11;150681.25;5072548;28;20192;-54
2023/05/01 14:25:18;;;;;;;3.22;2.80;;;;;;;22.42;38.84;150697.78;5071338;28;20589;-54
2023/05/01 14:36:58;;;;;;;2.63;2.42;;;;;;;22.43;39.65;150700.31;5072122;28;20635;-47
2023/05/01 14:39:27;;;;;;;2.92;2.70;;;;;;;22.37;39.56;150686.34;5071054;28;20200;-49
2023/05/01 14:42:00;;;;;;;3.05;2.90;;;;;;;22.35;39.56;150681.25;5071674;28;20283;-47
2023/05/01 14:44:32;;;;;;;5.95;2.80;;;;;;;22.39;39.67;150690.16;5071185;28;20265;-54
2023/05/01 14:50:30;;;;;;;4.10;3.17;;;;;;;22.40;40.55;150693.97;5070487;28;20390;-54
2023/05/01 14:53:28;;;;;;;3.28;2.65;;;;;;;22.38;40.62;150688.88;5069306;28;20195;-53
2023/05/01 15:05:58;;;;;;;5.47;2.58;;;;;;;22.20;39.20;150643.25;5070555;28;20195;-53
2023/05/01 15:09:01;;;;;;;3.38;3.17;;;;;;;22.25;40.37;150655.91;5071126;28;20196;-53
2023/05/01 15:18:19;;;;;;;4.00;3.70;;;;;;;22.16;41.79;150633.09;5070551;28;20200;-53
2023/05/01 15:21:31;;;;;;;;;;;;;;;;;;;;;
2023/05/01 15:24:44;;;;;;;;;;;;;;;;;;;;;
2023/05/01 15:27:31;;;;;;;6.75;3.80;;;;;;;21.98;42.81;150587.41;5070532;28;20204;-53
2023/05/01 15:30:13;;;;;;;3.88;3.58;;;;;;;22.00;43.42;150592.53;5069859;28;20282;-55
2023/05/01 15:33:20;;;;;;;3.72;3.53;;;;;;;22.00;43.41;150592.53;5071075;28;20275;-49
2023/05/01 15:36:27;;;;;;;3.83;3.25;;;;;;;22.06;42.71;150607.72;5070893;28;20282;-53
2023/05/01 15:42:35;;;;;;;7.38;3.97;;;;;;;22.08;42.59;150612.81;5070345;28;20196;-52
2023/05/01 15:48:31;;;;;;;3.30;3.10;;;;;;;22.07;41.47;150610.25;5065184;28;20261;-48
2023/05/01 15:51:18;;;;;;;3.40;3.10;;;;;;;22.01;41.48;150595.03;5070415;28;20278;-49
2023/05/01 15:54:01;;;;;;;3.35;3.15;;;;;;;22.00;41.35;150592.53;5070044;28;20192;-47
2023/05/01 15:57:03;;;;;;;4.35;3.00;;;;;;;21.87;41.19;150559.50;5068973;28;20287;-49
2023/05/01 16:02:39;;;;;;;3.72;3.42;;;;;;;21.85;40.98;150555.69;5065571;28;20852;-49
2023/05/01 16:08:30;;;;;;;3.10;2.90;;;;;;;21.90;40.04;150567.09;5070624;28;20208;-52
2023/05/01 16:11:01;;;;;;;3.20;3.00;;;;;;;21.89;40.48;150565.84;5070460;28;20287;-53
2023/05/01 16:13:53;;;;;;;3.63;3.42;;;;;;;21.82;40.70;150546.81;5069936;28;20192;-53
2023/05/01 16:16:58;;;;;;;3.85;3.50;;;;;;;21.77;41.37;150534.16;5068708;28;21036;-53
2023/05/01 16:19:41;;;;;;;5.03;3.00;;;;;;;21.73;41.14;150526.53;5069931;28;20240;-53
2023/05/01 16:22:20;;;;;;;3.45;3.20;;;;;;;21.72;41.43;150522.72;5079815;28;20257;-53
2023/05/01 16:25:00;;;;;;;3.53;3.30;;;;;;;21.73;41.70;150525.28;5068923;28;20224;-52
2023/05/01 16:27:46;;;;;;;5.35;4.07;;;;;;;21.70;42.04;150518.91;5068990;28;20676;-48
2023/05/01 16:30:38;;;;;;;4.25;3.92;;;;;;;21.64;42.97;150502.47;5068828;28;20203;-53
2023/05/01 16:33:17;;;;;;;4.40;4.00;;;;;;;21.48;43.33;150463.16;5068329;28;20749;-53
2023/05/01 16:35:58;;;;;;;4.40;4.00;;;;;;;21.38;44.00;150437.78;5072121;28;20215;-53